sensor_id;sensor_type;location;lat;lon;timestamp;P1;durP1;ratioP1;P2;durP2;ratioP2
6019;SDS011;3038;51.122;6.840;2023-03-03T00:00:05;50.57;;;32.43;;
6019;SDS011;3038;51.122;6.840;2023-03-03T00:02:32;50.23;;;31.77;;
6019;SDS011;3038;51.122;6.840;2023-03-03T00:04:57;44.73;;;31.27;;
6019;SDS011;3038;51.122;6.840;2023-03-03T00:07:23;49.57;;;33.13;;
6019;SDS011;3038;51.122;6.840;2023-03-03T00:09:48;48.50;;;31.63;;
6019;SDS011;3038;51.122;6.840;2023-03-03T00:12:24;55.37;;;34.53;;
6019;SDS011;3038;51.122;6.840;2023-03-03T00:14:54;46.33;;;30.87;;
6019;SDS011;3038;51.122;6.840;2023-03-03T00:19:48;47.07;;;32.67;;
6019;SDS011;3038;51.122;6.840;2023-03-03T00:22:35;51.50;;;31.80;;
6019;SDS011;3038;51.122;6.840;2023-03-03T00:27:54;48.30;;;32.93;;
6019;SDS011;3038;51.122;6.840;2023-03-03T00:30:24;47.27;;;32.30;;
6019;SDS011;3038;51.122;6.840;2023-03-03T00:32:52;49.93;;;34.20;;
6019;SDS011;3038;51.122;6.840;2023-03-03T00:40:32;49.90;;;33.80;;
6019;SDS011;3038;51.122;6.840;2023-03-03T00:43:01;49.60;;;31.67;;
6019;SDS011;3038;51.122;6.840;2023-03-03T00:48:25;54.23;;;33.60;;
6019;SDS011;3038;51.122;6.840;2023-03-03T00:50:58;47.13;;;31.43;;
6019;SDS011;3038;51.122;6.840;2023-03-03T00:53:26;52.23;;;33.20;;
6019;SDS011;3038;51.122;6.840;2023-03-03T00:55:53;51.63;;;31.47;;
6019;SDS011;3038;51.122;6.840;2023-03-03T00:58:19;56.60;;;33.30;;
6019;SDS011;3038;51.122;6.840;2023-03-03T01:00:46;50.87;;;30.07;;
6019;SDS011;3038;51.122;6.840;2023-03-03T01:03:17;55.37;;;34.07;;
6019;SDS011;3038;51.122;6.840;2023-03-03T01:05:45;53.10;;;32.63;;
6019;SDS011;3038;51.122;6.840;2023-03-03T01:08:11;49.10;;;33.03;;
6019;SDS011;3038;51.122;6.840;2023-03-03T01:10:38;58.27;;;35.97;;
6019;SDS011;3038;51.122;6.840;2023-03-03T01:13:08;57.47;;;35.83;;
6019;SDS011;3038;51.122;6.840;2023-03-03T01:15:34;50.10;;;32.23;;
6019;SDS011;3038;51.122;6.840;2023-03-03T01:18:00;52.93;;;34.60;;
6019;SDS011;3038;51.122;6.840;2023-03-03T01:20:25;51.87;;;33.57;;
6019;SDS011;3038;51.122;6.840;2023-03-03T01:22:51;54.37;;;33.20;;
6019;SDS011;3038;51.122;6.840;2023-03-03T01:25:16;52.03;;;33.07;;
6019;SDS011;3038;51.122;6.840;2023-03-03T01:27:41;50.67;;;32.63;;
6019;SDS011;3038;51.122;6.840;2023-03-03T01:30:07;58.97;;;34.87;;
6019;SDS011;3038;51.122;6.840;2023-03-03T01:32:33;55.43;;;32.00;;
6019;SDS011;3038;51.122;6.840;2023-03-03T01:34:59;48.20;;;30.87;;
6019;SDS011;3038;51.122;6.840;2023-03-03T01:37:24;62.13;;;33.90;;
6019;SDS011;3038;51.122;6.840;2023-03-03T01:39:50;51.57;;;32.00;;
6019;SDS011;3038;51.122;6.840;2023-03-03T01:42:17;56.20;;;33.60;;
6019;SDS011;3038;51.122;6.840;2023-03-03T01:44:43;52.53;;;34.37;;
6019;SDS011;3038;51.122;6.840;2023-03-03T01:47:10;57.30;;;35.03;;
6019;SDS011;3038;51.122;6.840;2023-03-03T01:49:56;53.30;;;31.90;;
6019;SDS011;3038;51.122;6.840;2023-03-03T01:52:31;54.93;;;32.43;;
6019;SDS011;3038;51.122;6.840;2023-03-03T01:55:00;56.60;;;33.87;;
6019;SDS011;3038;51.122;6.840;2023-03-03T01:57:30;53.37;;;31.70;;
6019;SDS011;3038;51.122;6.840;2023-03-03T01:59:59;57.53;;;30.60;;
6019;SDS011;3038;51.122;6.840;2023-03-03T02:02:28;49.80;;;29.60;;
6019;SDS011;3038;51.122;6.840;2023-03-03T02:04:54;59.67;;;31.70;;
6019;SDS011;3038;51.122;6.840;2023-03-03T02:07:20;50.60;;;31.53;;
6019;SDS011;3038;51.122;6.840;2023-03-03T02:09:51;57.07;;;32.63;;
6019;SDS011;3038;51.122;6.840;2023-03-03T02:12:25;51.07;;;32.37;;
6019;SDS011;3038;51.122;6.840;2023-03-03T02:15:19;47.10;;;30.53;;
6019;SDS011;3038;51.122;6.840;2023-03-03T02:18:02;53.63;;;31.60;;
6019;SDS011;3038;51.122;6.840;2023-03-03T02:20:36;49.80;;;29.77;;
6019;SDS011;3038;51.122;6.840;2023-03-03T02:23:07;56.50;;;32.00;;
6019;SDS011;3038;51.122;6.840;2023-03-03T02:25:42;58.30;;;33.70;;
6019;SDS011;3038;51.122;6.840;2023-03-03T02:28:18;41.23;;;26.90;;
6019;SDS011;3038;51.122;6.840;2023-03-03T02:30:44;45.37;;;28.87;;
6019;SDS011;3038;51.122;6.840;2023-03-03T02:33:10;49.40;;;28.70;;
6019;SDS011;3038;51.122;6.840;2023-03-03T02:35:36;53.57;;;29.70;;
6019;SDS011;3038;51.122;6.840;2023-03-03T02:38:10;52.30;;;31.57;;
6019;SDS011;3038;51.122;6.840;2023-03-03T02:40:49;60.97;;;32.37;;
6019;SDS011;3038;51.122;6.840;2023-03-03T02:43:22;54.37;;;30.40;;
6019;SDS011;3038;51.122;6.840;2023-03-03T02:45:51;49.23;;;28.60;;
6019;SDS011;3038;51.122;6.840;2023-03-03T02:48:16;47.17;;;29.03;;
6019;SDS011;3038;51.122;6.840;2023-03-03T02:50:41;51.13;;;29.57;;
6019;SDS011;3038;51.122;6.840;2023-03-03T02:53:07;50.30;;;31.83;;
6019;SDS011;3038;51.122;6.840;2023-03-03T02:55:32;45.97;;;27.80;;
6019;SDS011;3038;51.122;6.840;2023-03-03T02:57:58;52.43;;;31.33;;
6019;SDS011;3038;51.122;6.840;2023-03-03T03:00:23;52.60;;;31.83;;
6019;SDS011;3038;51.122;6.840;2023-03-03T03:02:48;53.63;;;31.20;;
6019;SDS011;3038;51.122;6.840;2023-03-03T03:05:14;53.10;;;29.80;;
6019;SDS011;3038;51.122;6.840;2023-03-03T03:07:39;50.50;;;28.97;;
6019;SDS011;3038;51.122;6.840;2023-03-03T03:10:05;55.10;;;30.70;;
6019;SDS011;3038;51.122;6.840;2023-03-03T03:12:30;50.53;;;31.07;;
6019;SDS011;3038;51.122;6.840;2023-03-03T03:14:55;53.30;;;29.43;;
6019;SDS011;3038;51.122;6.840;2023-03-03T03:17:21;60.47;;;32.97;;
6019;SDS011;3038;51.122;6.840;2023-03-03T03:19:46;53.07;;;31.73;;
6019;SDS011;3038;51.122;6.840;2023-03-03T03:22:11;60.30;;;33.17;;
6019;SDS011;3038;51.122;6.840;2023-03-03T03:24:37;53.70;;;32.20;;
6019;SDS011;3038;51.122;6.840;2023-03-03T03:27:02;48.70;;;28.90;;
6019;SDS011;3038;51.122;6.840;2023-03-03T03:29:27;48.77;;;30.30;;
6019;SDS011;3038;51.122;6.840;2023-03-03T03:31:53;50.23;;;28.23;;
6019;SDS011;3038;51.122;6.840;2023-03-03T03:34:18;51.23;;;31.77;;
6019;SDS011;3038;51.122;6.840;2023-03-03T03:36:44;57.83;;;31.70;;
6019;SDS011;3038;51.122;6.840;2023-03-03T03:39:10;57.97;;;31.77;;
6019;SDS011;3038;51.122;6.840;2023-03-03T03:41:36;60.67;;;32.20;;
6019;SDS011;3038;51.122;6.840;2023-03-03T03:44:01;60.20;;;33.40;;
6019;SDS011;3038;51.122;6.840;2023-03-03T03:46:27;57.13;;;32.20;;
6019;SDS011;3038;51.122;6.840;2023-03-03T03:48:52;60.20;;;32.87;;
6019;SDS011;3038;51.122;6.840;2023-03-03T03:51:18;59.63;;;33.83;;
6019;SDS011;3038;51.122;6.840;2023-03-03T03:53:43;54.33;;;31.17;;
6019;SDS011;3038;51.122;6.840;2023-03-03T03:56:09;53.77;;;28.80;;
6019;SDS011;3038;51.122;6.840;2023-03-03T03:58:34;54.60;;;26.70;;
6019;SDS011;3038;51.122;6.840;2023-03-03T04:01:00;54.40;;;30.50;;
6019;SDS011;3038;51.122;6.840;2023-03-03T04:03:30;54.50;;;29.73;;
6019;SDS011;3038;51.122;6.840;2023-03-03T04:05:55;42.80;;;21.60;;
6019;SDS011;3038;51.122;6.840;2023-03-03T04:08:20;53.10;;;30.70;;
6019;SDS011;3038;51.122;6.840;2023-03-03T04:10:46;51.63;;;28.43;;
6019;SDS011;3038;51.122;6.840;2023-03-03T04:13:11;54.80;;;30.37;;
6019;SDS011;3038;51.122;6.840;2023-03-03T04:15:36;50.40;;;29.20;;
6019;SDS011;3038;51.122;6.840;2023-03-03T04:18:02;50.27;;;29.70;;
6019;SDS011;3038;51.122;6.840;2023-03-03T04:20:28;54.57;;;30.57;;
6019;SDS011;3038;51.122;6.840;2023-03-03T04:22:53;50.73;;;27.83;;
6019;SDS011;3038;51.122;6.840;2023-03-03T04:25:19;55.17;;;28.43;;
6019;SDS011;3038;51.122;6.840;2023-03-03T04:27:44;52.73;;;30.43;;
6019;SDS011;3038;51.122;6.840;2023-03-03T04:30:10;59.43;;;30.80;;
6019;SDS011;3038;51.122;6.840;2023-03-03T04:32:37;43.97;;;26.90;;
6019;SDS011;3038;51.122;6.840;2023-03-03T04:35:02;50.97;;;29.43;;
6019;SDS011;3038;51.122;6.840;2023-03-03T04:37:28;46.33;;;27.23;;
6019;SDS011;3038;51.122;6.840;2023-03-03T04:39:53;48.60;;;28.53;;
6019;SDS011;3038;51.122;6.840;2023-03-03T04:42:18;52.53;;;30.83;;
6019;SDS011;3038;51.122;6.840;2023-03-03T04:44:44;56.63;;;30.87;;
6019;SDS011;3038;51.122;6.840;2023-03-03T04:47:09;49.20;;;30.77;;
6019;SDS011;3038;51.122;6.840;2023-03-03T04:49:35;53.73;;;30.20;;
6019;SDS011;3038;51.122;6.840;2023-03-03T04:52:00;50.00;;;30.17;;
6019;SDS011;3038;51.122;6.840;2023-03-03T04:54:26;50.10;;;29.83;;
6019;SDS011;3038;51.122;6.840;2023-03-03T04:56:51;65.93;;;33.27;;
6019;SDS011;3038;51.122;6.840;2023-03-03T04:59:17;47.07;;;28.87;;
6019;SDS011;3038;51.122;6.840;2023-03-03T05:01:42;53.23;;;31.10;;
6019;SDS011;3038;51.122;6.840;2023-03-03T05:04:07;50.93;;;31.73;;
6019;SDS011;3038;51.122;6.840;2023-03-03T05:06:33;49.13;;;30.90;;
6019;SDS011;3038;51.122;6.840;2023-03-03T05:08:58;52.17;;;31.50;;
6019;SDS011;3038;51.122;6.840;2023-03-03T05:11:23;57.93;;;33.00;;
6019;SDS011;3038;51.122;6.840;2023-03-03T05:13:49;53.47;;;32.50;;
6019;SDS011;3038;51.122;6.840;2023-03-03T05:16:14;52.77;;;31.20;;
6019;SDS011;3038;51.122;6.840;2023-03-03T05:18:40;55.50;;;30.03;;
6019;SDS011;3038;51.122;6.840;2023-03-03T05:21:05;56.37;;;29.40;;
6019;SDS011;3038;51.122;6.840;2023-03-03T05:23:31;53.83;;;31.00;;
6019;SDS011;3038;51.122;6.840;2023-03-03T05:25:56;52.00;;;28.70;;
6019;SDS011;3038;51.122;6.840;2023-03-03T05:28:21;50.37;;;29.50;;
6019;SDS011;3038;51.122;6.840;2023-03-03T05:30:47;47.90;;;26.53;;
6019;SDS011;3038;51.122;6.840;2023-03-03T05:33:13;54.57;;;32.57;;
6019;SDS011;3038;51.122;6.840;2023-03-03T05:35:40;51.80;;;28.73;;
6019;SDS011;3038;51.122;6.840;2023-03-03T05:38:06;45.33;;;27.80;;
6019;SDS011;3038;51.122;6.840;2023-03-03T05:40:31;49.27;;;29.73;;
6019;SDS011;3038;51.122;6.840;2023-03-03T05:42:57;49.40;;;27.53;;
6019;SDS011;3038;51.122;6.840;2023-03-03T05:45:23;52.00;;;27.33;;
6019;SDS011;3038;51.122;6.840;2023-03-03T05:47:51;49.30;;;27.30;;
6019;SDS011;3038;51.122;6.840;2023-03-03T05:50:18;47.70;;;27.93;;
6019;SDS011;3038;51.122;6.840;2023-03-03T05:52:52;48.90;;;27.40;;
6019;SDS011;3038;51.122;6.840;2023-03-03T05:55:17;46.17;;;27.93;;
6019;SDS011;3038;51.122;6.840;2023-03-03T05:57:43;49.87;;;27.10;;
6019;SDS011;3038;51.122;6.840;2023-03-03T06:00:10;39.27;;;24.50;;
6019;SDS011;3038;51.122;6.840;2023-03-03T06:02:37;51.50;;;29.50;;
6019;SDS011;3038;51.122;6.840;2023-03-03T06:05:02;44.17;;;25.20;;
6019;SDS011;3038;51.122;6.840;2023-03-03T06:07:28;51.47;;;30.10;;
6019;SDS011;3038;51.122;6.840;2023-03-03T06:09:53;49.03;;;28.93;;
6019;SDS011;3038;51.122;6.840;2023-03-03T06:12:18;48.83;;;28.10;;
6019;SDS011;3038;51.122;6.840;2023-03-03T06:14:44;49.93;;;27.60;;
6019;SDS011;3038;51.122;6.840;2023-03-03T06:17:09;50.70;;;29.40;;
6019;SDS011;3038;51.122;6.840;2023-03-03T06:19:35;48.63;;;27.90;;
6019;SDS011;3038;51.122;6.840;2023-03-03T06:22:00;59.33;;;30.47;;
6019;SDS011;3038;51.122;6.840;2023-03-03T06:24:26;49.83;;;29.70;;
6019;SDS011;3038;51.122;6.840;2023-03-03T06:26:54;53.60;;;30.07;;
6019;SDS011;3038;51.122;6.840;2023-03-03T06:29:20;51.90;;;28.90;;
6019;SDS011;3038;51.122;6.840;2023-03-03T06:31:46;44.93;;;26.13;;
6019;SDS011;3038;51.122;6.840;2023-03-03T06:34:11;52.67;;;28.03;;
6019;SDS011;3038;51.122;6.840;2023-03-03T06:36:36;51.03;;;28.80;;
6019;SDS011;3038;51.122;6.840;2023-03-03T06:39:02;47.30;;;29.73;;
6019;SDS011;3038;51.122;6.840;2023-03-03T06:41:28;56.87;;;29.73;;
6019;SDS011;3038;51.122;6.840;2023-03-03T06:43:53;55.47;;;30.70;;
6019;SDS011;3038;51.122;6.840;2023-03-03T06:46:18;54.20;;;30.60;;
6019;SDS011;3038;51.122;6.840;2023-03-03T06:48:44;56.80;;;30.60;;
6019;SDS011;3038;51.122;6.840;2023-03-03T06:51:19;56.23;;;31.60;;
6019;SDS011;3038;51.122;6.840;2023-03-03T06:53:50;52.80;;;29.30;;
6019;SDS011;3038;51.122;6.840;2023-03-03T06:56:20;49.50;;;28.20;;
6019;SDS011;3038;51.122;6.840;2023-03-03T06:58:47;54.83;;;30.00;;
6019;SDS011;3038;51.122;6.840;2023-03-03T07:01:14;53.30;;;28.07;;
6019;SDS011;3038;51.122;6.840;2023-03-03T07:03:41;57.07;;;29.90;;
6019;SDS011;3038;51.122;6.840;2023-03-03T07:06:12;57.20;;;31.13;;
6019;SDS011;3038;51.122;6.840;2023-03-03T07:08:42;59.93;;;34.33;;
6019;SDS011;3038;51.122;6.840;2023-03-03T07:11:10;61.13;;;32.13;;
6019;SDS011;3038;51.122;6.840;2023-03-03T07:13:41;55.40;;;33.13;;
6019;SDS011;3038;51.122;6.840;2023-03-03T07:16:11;64.60;;;34.23;;
6019;SDS011;3038;51.122;6.840;2023-03-03T07:21:20;62.53;;;32.57;;
6019;SDS011;3038;51.122;6.840;2023-03-03T07:23:48;54.33;;;30.50;;
6019;SDS011;3038;51.122;6.840;2023-03-03T07:26:19;50.83;;;28.00;;
6019;SDS011;3038;51.122;6.840;2023-03-03T07:29:33;45.53;;;26.50;;
6019;SDS011;3038;51.122;6.840;2023-03-03T07:31:39;53.30;;;28.20;;
6019;SDS011;3038;51.122;6.840;2023-03-03T07:34:22;50.17;;;27.30;;
6019;SDS011;3038;51.122;6.840;2023-03-03T07:36:58;40.10;;;24.10;;
6019;SDS011;3038;51.122;6.840;2023-03-03T07:39:35;48.50;;;26.70;;
6019;SDS011;3038;51.122;6.840;2023-03-03T07:44:39;39.43;;;24.13;;
6019;SDS011;3038;51.122;6.840;2023-03-03T07:47:24;42.20;;;24.60;;
6019;SDS011;3038;51.122;6.840;2023-03-03T07:49:52;48.07;;;26.60;;
6019;SDS011;3038;51.122;6.840;2023-03-03T07:52:27;47.20;;;26.17;;
6019;SDS011;3038;51.122;6.840;2023-03-03T07:55:19;47.77;;;28.33;;
6019;SDS011;3038;51.122;6.840;2023-03-03T07:57:50;49.07;;;26.47;;
6019;SDS011;3038;51.122;6.840;2023-03-03T08:02:44;40.93;;;23.10;;
6019;SDS011;3038;51.122;6.840;2023-03-03T08:08:14;42.60;;;24.43;;
6019;SDS011;3038;51.122;6.840;2023-03-03T08:11:01;40.67;;;23.60;;
6019;SDS011;3038;51.122;6.840;2023-03-03T08:13:34;40.17;;;25.67;;
6019;SDS011;3038;51.122;6.840;2023-03-03T08:21:21;41.57;;;25.30;;
6019;SDS011;3038;51.122;6.840;2023-03-03T08:23:48;38.20;;;23.07;;
6019;SDS011;3038;51.122;6.840;2023-03-03T08:26:16;39.90;;;25.67;;
6019;SDS011;3038;51.122;6.840;2023-03-03T08:28:45;43.50;;;22.70;;
6019;SDS011;3038;51.122;6.840;2023-03-03T08:31:11;38.70;;;22.80;;
6019;SDS011;3038;51.122;6.840;2023-03-03T08:33:37;39.00;;;24.00;;
6019;SDS011;3038;51.122;6.840;2023-03-03T08:36:03;44.90;;;24.30;;
6019;SDS011;3038;51.122;6.840;2023-03-03T08:38:29;42.60;;;25.07;;
6019;SDS011;3038;51.122;6.840;2023-03-03T08:40:54;42.73;;;27.37;;
6019;SDS011;3038;51.122;6.840;2023-03-03T08:43:20;49.00;;;27.20;;
6019;SDS011;3038;51.122;6.840;2023-03-03T08:45:47;46.20;;;24.07;;
6019;SDS011;3038;51.122;6.840;2023-03-03T08:48:14;44.97;;;25.37;;
6019;SDS011;3038;51.122;6.840;2023-03-03T08:50:40;41.03;;;25.87;;
6019;SDS011;3038;51.122;6.840;2023-03-03T08:53:07;44.47;;;26.00;;
6019;SDS011;3038;51.122;6.840;2023-03-03T08:55:32;47.43;;;27.87;;
6019;SDS011;3038;51.122;6.840;2023-03-03T08:57:58;47.80;;;27.83;;
6019;SDS011;3038;51.122;6.840;2023-03-03T09:00:23;43.73;;;26.07;;
6019;SDS011;3038;51.122;6.840;2023-03-03T09:02:50;45.83;;;26.10;;
6019;SDS011;3038;51.122;6.840;2023-03-03T09:05:16;44.13;;;25.47;;
6019;SDS011;3038;51.122;6.840;2023-03-03T09:07:43;39.90;;;23.23;;
6019;SDS011;3038;51.122;6.840;2023-03-03T09:10:10;48.00;;;26.23;;
6019;SDS011;3038;51.122;6.840;2023-03-03T09:12:40;41.57;;;22.73;;
6019;SDS011;3038;51.122;6.840;2023-03-03T09:15:21;38.37;;;23.03;;
6019;SDS011;3038;51.122;6.840;2023-03-03T09:17:47;44.40;;;24.10;;
6019;SDS011;3038;51.122;6.840;2023-03-03T09:20:21;48.20;;;24.37;;
6019;SDS011;3038;51.122;6.840;2023-03-03T09:31:42;49.17;;;27.27;;
6019;SDS011;3038;51.122;6.840;2023-03-03T09:34:18;49.30;;;25.77;;
6019;SDS011;3038;51.122;6.840;2023-03-03T09:36:44;47.10;;;24.90;;
6019;SDS011;3038;51.122;6.840;2023-03-03T09:39:15;47.43;;;26.83;;
6019;SDS011;3038;51.122;6.840;2023-03-03T09:45:02;47.50;;;25.40;;
6019;SDS011;3038;51.122;6.840;2023-03-03T09:47:54;50.80;;;26.60;;
6019;SDS011;3038;51.122;6.840;2023-03-03T09:59:09;50.67;;;26.80;;
6019;SDS011;3038;51.122;6.840;2023-03-03T10:13:09;53.93;;;27.10;;
6019;SDS011;3038;51.122;6.840;2023-03-03T10:16:26;55.27;;;27.80;;
6019;SDS011;3038;51.122;6.840;2023-03-03T10:19:08;46.77;;;25.90;;
6019;SDS011;3038;51.122;6.840;2023-03-03T10:25:59;54.63;;;25.67;;
6019;SDS011;3038;51.122;6.840;2023-03-03T10:33:55;55.60;;;27.40;;
6019;SDS011;3038;51.122;6.840;2023-03-03T10:36:33;54.03;;;29.03;;
6019;SDS011;3038;51.122;6.840;2023-03-03T10:39:09;54.07;;;26.87;;
6019;SDS011;3038;51.122;6.840;2023-03-03T10:52:55;53.83;;;28.00;;
6019;SDS011;3038;51.122;6.840;2023-03-03T10:58:09;53.27;;;28.33;;
6019;SDS011;3038;51.122;6.840;2023-03-03T11:14:59;57.77;;;30.70;;
6019;SDS011;3038;51.122;6.840;2023-03-03T11:23:20;57.60;;;29.73;;
6019;SDS011;3038;51.122;6.840;2023-03-03T11:31:55;55.87;;;30.83;;
6019;SDS011;3038;51.122;6.840;2023-03-03T11:37:25;55.97;;;30.13;;
6019;SDS011;3038;51.122;6.840;2023-03-03T11:40:17;53.10;;;30.10;;
6019;SDS011;3038;51.122;6.840;2023-03-03T11:45:19;54.97;;;31.23;;
6019;SDS011;3038;51.122;6.840;2023-03-03T11:50:49;62.57;;;34.57;;
6019;SDS011;3038;51.122;6.840;2023-03-03T11:56:23;57.37;;;32.57;;
6019;SDS011;3038;51.122;6.840;2023-03-03T12:01:32;61.57;;;32.90;;
6019;SDS011;3038;51.122;6.840;2023-03-03T12:04:03;54.73;;;31.37;;
6019;SDS011;3038;51.122;6.840;2023-03-03T12:09:36;53.17;;;31.57;;
6019;SDS011;3038;51.122;6.840;2023-03-03T12:12:22;57.30;;;33.33;;
6019;SDS011;3038;51.122;6.840;2023-03-03T12:17:53;66.43;;;35.93;;
6019;SDS011;3038;51.122;6.840;2023-03-03T12:24:12;57.87;;;32.17;;
6019;SDS011;3038;51.122;6.840;2023-03-03T12:26:19;54.63;;;33.03;;
6019;SDS011;3038;51.122;6.840;2023-03-03T12:28:54;67.37;;;33.80;;
6019;SDS011;3038;51.122;6.840;2023-03-03T12:34:31;54.17;;;30.80;;
6019;SDS011;3038;51.122;6.840;2023-03-03T12:40:07;57.30;;;30.13;;
6019;SDS011;3038;51.122;6.840;2023-03-03T12:46:05;51.67;;;31.10;;
6019;SDS011;3038;51.122;6.840;2023-03-03T12:48:46;55.10;;;32.00;;
6019;SDS011;3038;51.122;6.840;2023-03-03T12:54:18;60.27;;;34.87;;
6019;SDS011;3038;51.122;6.840;2023-03-03T12:57:20;54.30;;;30.20;;
6019;SDS011;3038;51.122;6.840;2023-03-03T13:07:36;53.93;;;28.53;;
6019;SDS011;3038;51.122;6.840;2023-03-03T13:10:09;53.37;;;30.63;;
6019;SDS011;3038;51.122;6.840;2023-03-03T13:12:43;50.20;;;28.43;;
6019;SDS011;3038;51.122;6.840;2023-03-03T13:15:26;54.33;;;31.00;;
6019;SDS011;3038;51.122;6.840;2023-03-03T13:20:59;59.50;;;32.70;;
6019;SDS011;3038;51.122;6.840;2023-03-03T13:23:35;51.00;;;28.20;;
6019;SDS011;3038;51.122;6.840;2023-03-03T13:26:12;52.60;;;28.30;;
6019;SDS011;3038;51.122;6.840;2023-03-03T13:29:03;49.83;;;27.20;;
6019;SDS011;3038;51.122;6.840;2023-03-03T13:31:39;45.67;;;25.73;;
6019;SDS011;3038;51.122;6.840;2023-03-03T13:34:13;49.37;;;27.10;;
6019;SDS011;3038;51.122;6.840;2023-03-03T13:36:52;44.00;;;26.47;;
6019;SDS011;3038;51.122;6.840;2023-03-03T13:39:24;49.67;;;26.27;;
6019;SDS011;3038;51.122;6.840;2023-03-03T13:44:43;51.30;;;27.57;;
6019;SDS011;3038;51.122;6.840;2023-03-03T13:47:15;50.73;;;26.47;;
6019;SDS011;3038;51.122;6.840;2023-03-03T13:50:22;51.07;;;28.40;;
6019;SDS011;3038;51.122;6.840;2023-03-03T13:55:50;49.87;;;26.73;;
6019;SDS011;3038;51.122;6.840;2023-03-03T13:58:42;45.10;;;26.07;;
6019;SDS011;3038;51.122;6.840;2023-03-03T14:04:37;48.57;;;25.67;;
6019;SDS011;3038;51.122;6.840;2023-03-03T14:07:26;37.13;;;22.30;;
6019;SDS011;3038;51.122;6.840;2023-03-03T14:10:02;39.67;;;23.73;;
6019;SDS011;3038;51.122;6.840;2023-03-03T14:12:46;38.70;;;22.07;;
6019;SDS011;3038;51.122;6.840;2023-03-03T14:16:08;36.40;;;21.40;;
6019;SDS011;3038;51.122;6.840;2023-03-03T14:18:41;41.17;;;23.30;;
6019;SDS011;3038;51.122;6.840;2023-03-03T14:21:32;34.07;;;21.60;;
6019;SDS011;3038;51.122;6.840;2023-03-03T14:24:10;39.67;;;22.83;;
6019;SDS011;3038;51.122;6.840;2023-03-03T14:26:52;40.83;;;23.93;;
6019;SDS011;3038;51.122;6.840;2023-03-03T14:31:51;36.90;;;22.73;;
6019;SDS011;3038;51.122;6.840;2023-03-03T14:34:29;36.73;;;24.43;;
6019;SDS011;3038;51.122;6.840;2023-03-03T14:37:18;38.50;;;23.07;;
6019;SDS011;3038;51.122;6.840;2023-03-03T14:40:29;40.33;;;22.77;;
6019;SDS011;3038;51.122;6.840;2023-03-03T14:45:22;39.07;;;21.80;;
6019;SDS011;3038;51.122;6.840;2023-03-03T14:48:05;41.07;;;24.10;;
6019;SDS011;3038;51.122;6.840;2023-03-03T14:50:37;34.37;;;21.70;;
6019;SDS011;3038;51.122;6.840;2023-03-03T14:53:12;34.03;;;21.60;;
6019;SDS011;3038;51.122;6.840;2023-03-03T14:56:16;35.40;;;21.73;;
6019;SDS011;3038;51.122;6.840;2023-03-03T14:58:53;33.03;;;19.93;;
6019;SDS011;3038;51.122;6.840;2023-03-03T15:01:36;33.93;;;22.23;;
6019;SDS011;3038;51.122;6.840;2023-03-03T15:06:53;42.10;;;22.73;;
6019;SDS011;3038;51.122;6.840;2023-03-03T15:12:39;38.93;;;21.17;;
6019;SDS011;3038;51.122;6.840;2023-03-03T15:17:32;35.43;;;20.27;;
6019;SDS011;3038;51.122;6.840;2023-03-03T15:22:51;34.83;;;20.17;;
6019;SDS011;3038;51.122;6.840;2023-03-03T15:32:04;38.23;;;23.47;;
6019;SDS011;3038;51.122;6.840;2023-03-03T15:42:47;38.80;;;20.13;;
6019;SDS011;3038;51.122;6.840;2023-03-03T15:56:19;32.23;;;20.53;;
6019;SDS011;3038;51.122;6.840;2023-03-03T16:02:08;36.20;;;21.53;;
6019;SDS011;3038;51.122;6.840;2023-03-03T16:15:35;34.50;;;21.00;;
6019;SDS011;3038;51.122;6.840;2023-03-03T16:20:56;34.90;;;20.50;;
6019;SDS011;3038;51.122;6.840;2023-03-03T16:26:17;34.47;;;20.70;;
6019;SDS011;3038;51.122;6.840;2023-03-03T16:31:51;33.83;;;20.17;;
6019;SDS011;3038;51.122;6.840;2023-03-03T16:37:18;35.70;;;20.97;;
6019;SDS011;3038;51.122;6.840;2023-03-03T16:40:12;40.40;;;21.00;;
6019;SDS011;3038;51.122;6.840;2023-03-03T16:42:44;38.23;;;21.60;;
6019;SDS011;3038;51.122;6.840;2023-03-03T16:56:09;36.80;;;21.37;;
6019;SDS011;3038;51.122;6.840;2023-03-03T16:58:51;31.67;;;21.60;;
6019;SDS011;3038;51.122;6.840;2023-03-03T17:01:41;34.77;;;20.57;;
6019;SDS011;3038;51.122;6.840;2023-03-03T17:07:31;36.70;;;20.60;;
6019;SDS011;3038;51.122;6.840;2023-03-03T17:15:34;36.00;;;21.07;;
6019;SDS011;3038;51.122;6.840;2023-03-03T17:18:17;41.70;;;20.80;;
6019;SDS011;3038;51.122;6.840;2023-03-03T17:20:55;34.63;;;20.17;;
6019;SDS011;3038;51.122;6.840;2023-03-03T17:28:45;36.80;;;19.50;;
6019;SDS011;3038;51.122;6.840;2023-03-03T17:34:24;39.13;;;21.40;;
6019;SDS011;3038;51.122;6.840;2023-03-03T17:39:48;62.80;;;32.13;;
6019;SDS011;3038;51.122;6.840;2023-03-03T17:42:29;57.00;;;29.60;;
6019;SDS011;3038;51.122;6.840;2023-03-03T17:45:16;40.80;;;22.30;;
6019;SDS011;3038;51.122;6.840;2023-03-03T17:50:44;37.03;;;20.90;;
6019;SDS011;3038;51.122;6.840;2023-03-03T17:53:46;39.73;;;22.73;;
6019;SDS011;3038;51.122;6.840;2023-03-03T17:56:45;35.90;;;20.30;;
6019;SDS011;3038;51.122;6.840;2023-03-03T18:02:02;45.60;;;22.90;;
6019;SDS011;3038;51.122;6.840;2023-03-03T18:12:09;43.77;;;23.43;;
6019;SDS011;3038;51.122;6.840;2023-03-03T18:25:56;40.50;;;22.73;;
6019;SDS011;3038;51.122;6.840;2023-03-03T18:31:14;41.53;;;24.60;;
6019;SDS011;3038;51.122;6.840;2023-03-03T18:33:55;39.70;;;24.93;;
6019;SDS011;3038;51.122;6.840;2023-03-03T18:38:51;39.47;;;24.90;;
6019;SDS011;3038;51.122;6.840;2023-03-03T18:41:22;41.40;;;24.50;;
6019;SDS011;3038;51.122;6.840;2023-03-03T18:49:03;42.73;;;25.93;;
6019;SDS011;3038;51.122;6.840;2023-03-03T18:53:59;40.90;;;25.17;;
6019;SDS011;3038;51.122;6.840;2023-03-03T19:04:42;53.47;;;32.80;;
6019;SDS011;3038;51.122;6.840;2023-03-03T19:07:16;56.10;;;32.77;;
6019;SDS011;3038;51.122;6.840;2023-03-03T19:15:56;54.07;;;34.90;;
6019;SDS011;3038;51.122;6.840;2023-03-03T19:20:52;50.53;;;30.60;;
6019;SDS011;3038;51.122;6.840;2023-03-03T19:34:53;52.10;;;32.07;;
6019;SDS011;3038;51.122;6.840;2023-03-03T19:51:21;74.60;;;43.83;;
6019;SDS011;3038;51.122;6.840;2023-03-03T19:56:59;74.83;;;46.30;;
6019;SDS011;3038;51.122;6.840;2023-03-03T20:02:02;74.67;;;44.93;;
6019;SDS011;3038;51.122;6.840;2023-03-03T20:04:57;71.97;;;45.17;;
6019;SDS011;3038;51.122;6.840;2023-03-03T20:13:26;89.10;;;48.93;;
6019;SDS011;3038;51.122;6.840;2023-03-03T20:24:33;78.70;;;46.53;;
6019;SDS011;3038;51.122;6.840;2023-03-03T20:27:07;86.17;;;49.30;;
6019;SDS011;3038;51.122;6.840;2023-03-03T20:29:51;83.53;;;47.40;;
6019;SDS011;3038;51.122;6.840;2023-03-03T20:35:29;82.77;;;46.83;;
6019;SDS011;3038;51.122;6.840;2023-03-03T20:38:17;79.90;;;46.17;;
6019;SDS011;3038;51.122;6.840;2023-03-03T20:52:16;73.50;;;44.73;;
6019;SDS011;3038;51.122;6.840;2023-03-03T20:55:06;74.67;;;46.77;;
6019;SDS011;3038;51.122;6.840;2023-03-03T20:57:59;85.90;;;48.73;;
6019;SDS011;3038;51.122;6.840;2023-03-03T21:03:30;91.70;;;50.30;;
6019;SDS011;3038;51.122;6.840;2023-03-03T21:06:02;89.90;;;47.30;;
6019;SDS011;3038;51.122;6.840;2023-03-03T21:08:47;89.97;;;49.60;;
6019;SDS011;3038;51.122;6.840;2023-03-03T21:11:13;83.73;;;47.50;;
6019;SDS011;3038;51.122;6.840;2023-03-03T21:13:42;79.10;;;45.60;;
6019;SDS011;3038;51.122;6.840;2023-03-03T21:16:11;80.63;;;46.10;;
6019;SDS011;3038;51.122;6.840;2023-03-03T21:18:36;80.33;;;47.93;;
6019;SDS011;3038;51.122;6.840;2023-03-03T21:21:02;78.60;;;47.47;;
6019;SDS011;3038;51.122;6.840;2023-03-03T21:23:28;79.83;;;47.00;;
6019;SDS011;3038;51.122;6.840;2023-03-03T21:25:57;85.90;;;48.33;;
6019;SDS011;3038;51.122;6.840;2023-03-03T21:31:06;80.57;;;45.57;;
6019;SDS011;3038;51.122;6.840;2023-03-03T21:33:48;78.93;;;49.60;;
6019;SDS011;3038;51.122;6.840;2023-03-03T21:36:17;73.83;;;45.10;;
6019;SDS011;3038;51.122;6.840;2023-03-03T21:38:45;75.13;;;43.80;;